Time;durP1;ratioP1;P1;durP2;ratioP2;P2;SDS_P1;SDS_P2;PMS_P1;PMS_P2;Temp;Humidity;BMP_temperature;BMP_pressure;BME280_temperature;BME280_humidity;BME280_pressure;Samples;Min_cycle;Max_cycle;Signal;HPM_P1;HPM_P2
2022/07/18 00:01:57;;;;;;;2.10;1.60;;;;;;;11.86;62.44;101026.17;130260;1267;108730;-76
2022/07/18 00:05:03;;;;;;;2.40;2.00;;;;;;;11.83;62.23;101025.79;130282;1266;108778;-78
2022/07/18 00:08:08;;;;;;;3.00;1.80;;;;;;;11.81;62.67;101025.98;130288;1267;108922;-76
2022/07/18 00:11:14;;;;;;;3.10;1.90;;;;;;;11.76;62.51;101021.26;130267;1267;108704;-78
2022/07/18 00:14:20;;;;;;;2.40;1.60;;;;;;;11.71;62.78;101018.98;130270;1267;107553;-78
2022/07/18 00:17:25;;;;;;;2.70;1.90;;;;;;;11.68;62.71;101016.31;130331;1267;108825;-80
2022/07/18 00:20:31;;;;;;;4.00;1.70;;;;;;;11.64;62.93;101013.14;130211;1267;108857;-79
2022/07/18 00:23:36;;;;;;;1.50;1.30;;;;;;;11.61;62.73;101015.31;130225;1267;108682;-79
2022/07/18 00:26:42;;;;;;;3.10;1.70;;;;;;;11.60;62.89;101011.11;130258;1267;108646;-78
2022/07/18 00:29:47;;;;;;;3.80;1.50;;;;;;;11.62;63.12;101013.61;130264;1267;108706;-77
2022/07/18 00:32:52;;;;;;;2.80;1.90;;;;;;;11.65;63.29;101017.57;130230;1267;108656;-78
2022/07/18 00:35:58;;;;;;;2.90;1.60;;;;;;;11.67;63.03;101011.88;130259;1267;108955;-79
2022/07/18 00:39:04;;;;;;;2.00;1.60;;;;;;;11.68;62.96;101010.91;130288;1267;108948;-77
2022/07/18 00:42:09;;;;;;;2.80;1.90;;;;;;;11.66;62.89;101008.27;130237;1267;109974;-77
2022/07/18 00:45:15;;;;;;;2.70;1.90;;;;;;;11.63;63.23;101007.34;130292;1267;108981;-78
2022/07/18 00:48:21;;;;;;;2.80;1.80;;;;;;;11.58;63.27;101006.47;130270;1265;108922;-76
2022/07/18 00:51:27;;;;;;;2.60;1.60;;;;;;;11.53;63.35;101007.52;130269;1267;108874;-77
2022/07/18 00:54:32;;;;;;;2.40;1.80;;;;;;;11.50;63.36;101010.66;130320;1267;108737;-78
2022/07/18 00:57:40;;;;;;;2.50;1.70;;;;;;;11.45;63.28;101012.85;130280;1267;108737;-76
2022/07/18 01:04:08;;;;;;;2.00;1.70;;;;;;;11.37;63.33;101016.79;130175;1267;108665;-77
2022/07/18 01:07:14;;;;;;;2.30;1.70;;;;;;;11.33;63.91;101017.31;130223;1267;108873;-77
2022/07/18 01:10:19;;;;;;;2.40;1.70;;;;;;;11.32;63.73;101016.92;130310;1267;108684;-76
2022/07/18 01:13:25;;;;;;;2.00;1.50;;;;;;;11.33;63.65;101021.75;130329;1267;108859;-78
2022/07/18 01:16:31;;;;;;;2.70;1.70;;;;;;;11.35;63.88;101021.27;130263;1267;108911;-77
2022/07/18 01:19:38;;;;;;;3.00;1.90;;;;;;;11.36;63.73;101019.17;130272;1267;108620;-77
2022/07/18 01:22:43;;;;;;;2.10;1.80;;;;;;;11.36;63.95;101020.28;130255;1267;108479;-76
2022/07/18 01:25:49;;;;;;;3.50;2.00;;;;;;;11.32;63.79;101021.85;130239;1267;108924;-77
2022/07/18 01:28:55;;;;;;;4.30;1.90;;;;;;;11.31;64.02;101017.51;130290;1267;108762;-78
2022/07/18 01:32:06;;;;;;;3.00;2.00;;;;;;;11.26;63.78;101020.48;130230;1267;108541;-77
2022/07/18 01:35:12;;;;;;;2.70;2.00;;;;;;;11.19;64.21;101020.16;130324;1267;108632;-77
2022/07/18 01:38:19;;;;;;;5.00;2.10;;;;;;;11.16;64.11;101020.48;130321;1267;108896;-78
2022/07/18 01:41:24;;;;;;;4.30;2.10;;;;;;;11.10;64.50;101025.83;130326;1267;107548;-77
2022/07/18 01:44:30;;;;;;;5.00;2.30;;;;;;;11.06;64.36;101028.71;130261;1267;108686;-78
2022/07/18 01:47:36;;;;;;;3.10;1.80;;;;;;;11.02;64.43;101024.92;130273;1267;108464;-78
2022/07/18 01:50:42;;;;;;;2.80;1.70;;;;;;;10.99;64.50;101018.20;130218;1267;108762;-78
2022/07/18 01:53:59;;;;;;;2.30;1.80;;;;;;;10.99;64.63;101016.62;130279;1267;108925;-78
2022/07/18 01:57:06;;;;;;;2.50;1.60;;;;;;;11.00;64.65;101019.57;130338;1267;106983;-78
2022/07/18 02:00:14;;;;;;;3.60;2.00;;;;;;;11.04;64.79;101022.29;130354;1267;108840;-77
2022/07/18 02:03:19;;;;;;;2.60;2.00;;;;;;;11.08;64.60;101025.10;130319;1267;109148;-73
2022/07/18 02:06:24;;;;;;;2.60;1.90;;;;;;;11.09;64.70;101027.35;130279;1267;108783;-75
2022/07/18 02:09:30;;;;;;;2.70;1.90;;;;;;;11.07;64.64;101028.23;130254;1267;108732;-74
2022/07/18 02:12:36;;;;;;;3.40;2.00;;;;;;;11.07;64.96;101029.17;130261;1267;109262;-74
2022/07/18 02:15:46;;;;;;;2.70;2.10;;;;;;;11.05;64.78;101033.10;130328;1267;108207;-78
2022/07/18 02:18:52;;;;;;;2.50;2.20;;;;;;;10.99;64.89;101037.81;130222;1267;110014;-78
2022/07/18 02:21:57;;;;;;;2.70;2.20;;;;;;;10.94;64.95;101040.39;130281;1267;108751;-78
2022/07/18 02:25:03;;;;;;;3.90;2.60;;;;;;;10.92;65.00;101039.03;130289;1267;108673;-78
2022/07/18 02:28:08;;;;;;;2.80;2.10;;;;;;;10.90;65.16;101042.02;130211;1267;109053;-78
2022/07/18 02:31:13;;;;;;;2.90;1.90;;;;;;;10.86;65.09;101038.45;130226;1267;108711;-80
2022/07/18 02:34:19;;;;;;;3.90;2.30;;;;;;;10.84;65.16;101040.75;130234;1267;108772;-80
2022/07/18 02:37:24;;;;;;;2.40;2.20;;;;;;;10.85;65.14;101040.89;130288;1267;108716;-81
2022/07/18 02:40:29;;;;;;;2.70;2.00;;;;;;;10.87;65.49;101036.94;130281;1267;108731;-79
2022/07/18 02:43:35;;;;;;;2.80;2.30;;;;;;;10.88;65.15;101037.86;130314;1267;110037;-81
2022/07/18 02:46:41;;;;;;;3.00;2.00;;;;;;;10.89;65.44;101040.28;130342;1267;108793;-81
2022/07/18 02:49:46;;;;;;;3.10;2.60;;;;;;;10.90;65.17;101036.86;130406;1267;106940;-76
2022/07/18 02:52:51;;;;;;;3.00;2.50;;;;;;;10.88;65.30;101037.73;130304;1267;108783;-76
2022/07/18 02:55:57;;;;;;;3.40;2.50;;;;;;;10.86;65.37;101040.59;130362;1267;108560;-75
2022/07/18 02:59:02;;;;;;;2.70;2.40;;;;;;;10.84;65.16;101036.00;130323;1267;108820;-77
2022/07/18 03:02:07;;;;;;;4.00;3.00;;;;;;;10.84;65.49;101036.90;130385;1267;108859;-78
2022/07/18 03:05:14;;;;;;;3.80;3.00;;;;;;;10.84;65.42;101037.23;130876;1267;109250;-81
2022/07/18 03:08:19;;;;;;;5.30;2.60;;;;;;;10.84;65.50;101039.90;130527;1267;108948;-79
2022/07/18 03:11:25;;;;;;;7.20;2.40;;;;;;;10.85;65.84;101038.34;130682;1267;109983;-79
2022/07/18 03:14:30;;;;;;;4.20;2.30;;;;;;;10.86;65.44;101038.08;130430;1267;108557;-79
2022/07/18 03:17:36;;;;;;;4.30;2.80;;;;;;;10.91;66.03;101039.78;130575;1267;108733;-78
2022/07/18 03:20:41;;;;;;;2.70;2.30;;;;;;;11.00;65.77;101048.27;130384;1267;108904;-79
2022/07/18 03:23:47;;;;;;;3.20;2.40;;;;;;;11.09;65.91;101049.96;130591;1267;108882;-79
2022/07/18 03:26:52;;;;;;;3.00;2.40;;;;;;;11.17;66.11;101051.52;131192;1267;108806;-81
2022/07/18 03:29:57;;;;;;;3.60;2.70;;;;;;;11.25;65.78;101050.98;131634;1267;108753;-80
2022/07/18 03:33:03;;;;;;;3.70;2.70;;;;;;;11.33;65.78;101046.20;130472;1267;108815;-80
2022/07/18 03:36:08;;;;;;;4.20;2.80;;;;;;;11.43;66.02;101048.72;130431;1267;109172;-79
2022/07/18 03:39:14;;;;;;;3.10;2.80;;;;;;;11.53;66.09;101049.89;130419;1267;108899;-79
2022/07/18 03:42:19;;;;;;;4.50;2.70;;;;;;;11.71;66.12;101047.60;130431;1267;108912;-80
2022/07/18 03:45:24;;;;;;;4.90;2.50;;;;;;;11.91;66.35;101053.73;130388;1267;108824;-80
2022/07/18 03:48:30;;;;;;;5.10;2.50;;;;;;;12.10;66.19;101054.70;130378;1267;108860;-80
2022/07/18 03:51:35;;;;;;;3.60;2.40;;;;;;;12.35;66.28;101052.66;130405;1267;108698;-80
2022/07/18 03:54:41;;;;;;;3.30;2.40;;;;;;;12.62;66.46;101051.44;130425;1267;108745;-80
2022/07/18 03:57:46;;;;;;;5.30;2.50;;;;;;;12.83;66.27;101045.67;130404;1267;108926;-80
2022/07/18 04:00:52;;;;;;;3.80;2.40;;;;;;;13.01;66.23;101047.60;131232;1267;108834;-80
2022/07/18 04:03:57;;;;;;;4.50;2.20;;;;;;;13.19;66.34;101047.48;131633;1267;108812;-81
2022/07/18 04:07:03;;;;;;;3.40;2.80;;;;;;;13.44;66.36;101047.42;131416;1266;108754;-80
2022/07/18 04:10:10;;;;;;;4.10;3.10;;;;;;;13.69;66.34;101048.09;130475;1267;107733;-80
2022/07/18 04:13:16;;;;;;;3.30;2.80;;;;;;;13.94;66.47;101047.88;130717;1267;108164;-80
2022/07/18 04:16:21;;;;;;;4.10;2.70;;;;;;;14.20;66.48;101046.15;131077;1267;108916;-81
2022/07/18 04:19:27;;;;;;;3.30;2.40;;;;;;;14.47;66.45;101043.98;131196;1266;107722;-81
2022/07/18 04:22:32;;;;;;;6.50;3.20;;;;;;;14.73;66.38;101046.31;131080;1267;108815;-79
2022/07/18 04:25:40;;;;;;;4.80;3.50;;;;;;;14.95;66.32;101038.91;131088;1267;108650;-80
2022/07/18 04:28:46;;;;;;;6.10;3.90;;;;;;;15.27;66.39;101037.36;130635;1267;108200;-78
2022/07/18 04:31:51;;;;;;;6.30;3.90;;;;;;;15.59;66.15;101040.52;130288;1267;109582;-78
2022/07/18 04:34:57;;;;;;;4.90;3.60;;;;;;;15.82;66.06;101037.33;130307;1267;108850;-78
2022/07/18 04:38:02;;;;;;;7.40;3.90;;;;;;;15.97;65.86;101038.43;130411;1267;108920;-81
2022/07/18 04:41:08;;;;;;;5.50;4.00;;;;;;;16.12;65.68;101036.77;130564;1267;107831;-79
2022/07/18 04:44:14;;;;;;;6.40;4.30;;;;;;;16.24;65.78;101037.92;130416;1267;108815;-80
2022/07/18 04:47:20;;;;;;;4.40;3.70;;;;;;;16.38;65.71;101034.60;130591;1267;108633;-80
2022/07/18 04:50:26;;;;;;;5.40;3.60;;;;;;;16.54;65.55;101035.53;130705;1267;108824;-80
2022/07/18 04:53:32;;;;;;;5.10;3.40;;;;;;;16.66;65.31;101039.80;130547;1267;108758;-80
2022/07/18 04:56:37;;;;;;;6.40;3.70;;;;;;;16.76;65.38;101038.15;130704;1267;109175;-80
2022/07/18 04:59:43;;;;;;;4.40;3.50;;;;;;;16.85;65.37;101037.07;130386;1267;108873;-79
2022/07/18 05:02:50;;;;;;;5.30;3.30;;;;;;;16.95;65.31;101038.27;130387;1267;108942;-80
2022/07/18 05:05:55;;;;;;;5.30;3.80;;;;;;;17.04;65.02;101034.02;130431;1267;107754;-79
2022/07/18 05:09:01;;;;;;;4.20;3.20;;;;;;;17.21;65.05;101036.65;130465;1268;108749;-80
2022/07/18 05:12:06;;;;;;;6.20;3.00;;;;;;;17.46;64.84;101037.60;130311;1268;109203;-81
2022/07/18 05:15:14;;;;;;;6.90;2.80;;;;;;;17.61;64.46;101034.87;130427;1268;108733;-82
2022/07/18 05:18:20;;;;;;;4.60;2.80;;;;;;;17.69;64.12;101040.69;130386;1268;109019;-83
2022/07/18 05:21:25;;;;;;;6.70;2.90;;;;;;;17.83;64.14;101037.91;130428;1268;108831;-82
2022/07/18 05:24:31;;;;;;;4.10;3.10;;;;;;;18.03;64.01;101036.48;130417;1267;108861;-79
2022/07/18 05:27:37;;;;;;;5.20;2.70;;;;;;;18.18;63.72;101030.69;130322;1267;109188;-79
2022/07/18 05:30:43;;;;;;;8.10;2.90;;;;;;;18.32;63.54;101038.01;130373;1268;108433;-79
2022/07/18 05:33:48;;;;;;;4.40;2.60;;;;;;;18.48;63.68;101033.09;130242;1267;108812;-79
2022/07/18 05:36:54;;;;;;;4.80;2.40;;;;;;;18.64;63.42;101030.54;130310;1268;108243;-83
2022/07/18 05:40:00;;;;;;;2.90;2.10;;;;;;;18.67;62.85;101031.81;130342;1268;108861;-77
2022/07/18 05:43:05;;;;;;;2.90;1.80;;;;;;;18.69;62.93;101031.76;130297;1267;109115;-76
2022/07/18 05:46:11;;;;;;;3.90;2.10;;;;;;;18.66;62.35;101032.80;130258;1268;108782;-77
2022/07/18 05:49:17;;;;;;;3.90;2.40;;;;;;;18.62;62.71;101031.73;130224;1268;108294;-76
2022/07/18 05:52:23;;;;;;;3.20;2.00;;;;;;;18.62;62.18;101031.23;130265;1267;108690;-76
2022/07/18 05:55:28;;;;;;;4.00;2.20;;;;;;;18.46;62.26;101036.30;130298;1267;108806;-77
2022/07/18 05:58:33;;;;;;;4.40;2.10;;;;;;;18.48;62.74;101037.91;130193;1267;108709;-76
2022/07/18 06:01:39;;;;;;;3.20;1.90;;;;;;;18.65;62.88;101034.23;130210;1268;108943;-76
2022/07/18 06:04:44;;;;;;;3.70;2.20;;;;;;;18.75;61.95;101032.45;130266;1268;108871;-76
2022/07/18 06:07:51;;;;;;;3.20;1.80;;;;;;;18.73;61.53;101033.63;130249;1267;108678;-76
2022/07/18 06:10:56;;;;;;;2.10;1.70;;;;;;;18.78;61.99;101033.25;130230;1268;108584;-76
2022/07/18 06:14:03;;;;;;;5.20;1.90;;;;;;;18.95;61.87;101029.75;130200;1267;108990;-77
2022/07/18 06:17:08;;;;;;;3.50;1.70;;;;;;;19.14;61.71;101025.36;130207;1267;109069;-76
2022/07/18 06:20:14;;;;;;;2.30;1.40;;;;;;;19.31;61.04;101026.70;130217;1268;108721;-76
2022/07/18 06:23:20;;;;;;;4.20;1.40;;;;;;;19.37;61.47;101025.10;130263;1268;108964;-75
2022/07/18 06:26:25;;;;;;;2.90;1.60;;;;;;;19.53;61.07;101027.98;130233;1268;108969;-76
2022/07/18 06:29:30;;;;;;;3.90;1.60;;;;;;;19.60;59.61;101029.59;130330;1268;108804;-74
2022/07/18 06:32:36;;;;;;;2.30;1.40;;;;;;;19.56;58.84;101032.25;130304;1267;108773;-74
2022/07/18 06:35:41;;;;;;;3.10;1.40;;;;;;;19.62;59.56;101034.55;130454;1267;108954;-75
2022/07/18 06:38:46;;;;;;;2.40;1.40;;;;;;;19.73;58.64;101031.57;130283;1268;107723;-75
2022/07/18 06:41:52;;;;;;;3.60;1.60;;;;;;;19.80;59.48;101030.88;130150;1268;108960;-74
2022/07/18 06:44:57;;;;;;;2.50;1.40;;;;;;;19.87;58.95;101033.89;130122;1268;108671;-74
2022/07/18 06:48:03;;;;;;;2.60;1.40;;;;;;;19.87;58.42;101036.78;130127;1268;108296;-76
2022/07/18 06:51:09;;;;;;;2.60;1.40;;;;;;;19.89;59.49;101030.66;130187;1268;108942;-76
2022/07/18 06:54:15;;;;;;;2.70;1.50;;;;;;;19.94;59.14;101030.67;130121;1268;108294;-75
2022/07/18 06:57:20;;;;;;;4.20;1.30;;;;;;;19.90;58.86;101033.52;130180;1268;108726;-75
2022/07/18 07:00:26;;;;;;;2.70;1.50;;;;;;;19.85;58.77;101030.54;130178;1268;108811;-77
2022/07/18 07:03:31;;;;;;;2.80;1.30;;;;;;;19.81;58.96;101033.14;130208;1268;108978;-76
2022/07/18 07:06:38;;;;;;;2.90;1.40;;;;;;;19.85;58.92;101033.92;130159;1268;108765;-76
2022/07/18 07:09:43;;;;;;;2.20;1.30;;;;;;;19.92;58.18;101035.45;130145;1268;106603;-76
2022/07/18 07:12:51;;;;;;;3.10;1.50;;;;;;;19.93;58.08;101033.91;130145;1268;108881;-76
2022/07/18 07:15:56;;;;;;;2.60;1.40;;;;;;;19.87;57.28;101036.52;130195;1268;108747;-76
2022/07/18 07:19:02;;;;;;;3.00;1.50;;;;;;;19.74;57.74;101033.20;130208;1268;109078;-77
2022/07/18 07:22:08;;;;;;;3.10;1.30;;;;;;;19.64;57.69;101031.95;130227;1268;108703;-77
2022/07/18 07:25:13;;;;;;;3.00;1.50;;;;;;;19.60;57.23;101036.58;130248;1268;108831;-77
2022/07/18 07:28:19;;;;;;;2.00;1.40;;;;;;;19.49;56.91;101033.52;130169;1268;108755;-76
2022/07/18 07:31:24;;;;;;;2.50;1.60;;;;;;;19.42;57.12;101034.65;130176;1268;108775;-75
2022/07/18 07:34:30;;;;;;;2.80;1.40;;;;;;;19.38;56.78;101034.85;130252;1268;108775;-77
2022/07/18 07:37:36;;;;;;;2.90;1.50;;;;;;;19.41;57.41;101032.89;130185;1268;108794;-76
2022/07/18 07:40:41;;;;;;;3.40;1.70;;;;;;;19.42;56.12;101029.45;130168;1268;109979;-76
2022/07/18 07:43:46;;;;;;;3.80;1.80;;;;;;;19.37;56.86;101031.58;130176;1268;108887;-76
2022/07/18 07:46:52;;;;;;;4.00;1.60;;;;;;;19.43;57.15;101027.21;130186;1268;108848;-75
2022/07/18 07:49:58;;;;;;;5.20;1.90;;;;;;;19.53;57.61;101029.77;130274;1267;107700;-77
2022/07/18 07:53:03;;;;;;;3.00;1.50;;;;;;;19.60;56.79;101032.21;130311;1267;108693;-75
2022/07/18 07:56:10;;;;;;;3.70;1.90;;;;;;;19.67;57.34;101030.11;130286;1267;108950;-77
2022/07/18 07:59:16;;;;;;;2.60;1.60;;;;;;;19.69;56.01;101031.20;130353;1267;108668;-76
2022/07/18 08:02:21;;;;;;;5.00;1.50;;;;;;;19.71;56.47;101028.37;130333;1267;108964;-75
2022/07/18 08:05:28;;;;;;;3.50;1.70;;;;;;;19.82;56.74;101029.31;130369;1267;108850;-75
2022/07/18 08:08:33;;;;;;;3.60;1.70;;;;;;;19.91;56.05;101026.77;130362;1267;108692;-76
2022/07/18 08:11:38;;;;;;;4.20;1.70;;;;;;;19.96;55.67;101026.59;130371;1267;108698;-77
2022/07/18 08:14:44;;;;;;;2.30;1.40;;;;;;;19.96;55.90;101026.60;130329;1267;109032;-76
2022/07/18 08:17:49;;;;;;;2.60;1.70;;;;;;;20.04;56.05;101023.16;130636;1267;108954;-76
2022/07/18 08:20:55;;;;;;;2.00;1.50;;;;;;;20.12;56.09;101023.72;130348;1268;108043;-76
2022/07/18 08:24:00;;;;;;;3.50;1.50;;;;;;;20.18;55.39;101022.42;130204;1268;108536;-76
2022/07/18 08:27:06;;;;;;;3.50;1.50;;;;;;;20.19;55.62;101019.73;130229;1268;108724;-76
2022/07/18 08:30:12;;;;;;;3.20;1.50;;;;;;;20.29;56.22;101015.63;130207;1268;109916;-78
2022/07/18 08:33:18;;;;;;;4.60;1.80;;;;;;;20.40;55.16;101026.29;130147;1268;108861;-75
2022/07/18 08:36:24;;;;;;;4.60;1.70;;;;;;;20.37;54.81;101024.47;130168;1268;108758;-77
2022/07/18 08:39:30;;;;;;;3.90;1.60;;;;;;;20.45;55.33;101020.80;130205;1268;108845;-76
2022/07/18 08:42:36;;;;;;;2.50;1.50;;;;;;;20.51;55.28;101021.01;130152;1268;108736;-77
2022/07/18 08:45:44;;;;;;;3.70;1.50;;;;;;;20.57;53.92;101017.32;130295;1267;108806;-77
2022/07/18 08:48:51;;;;;;;3.70;1.50;;;;;;;20.70;55.10;101016.30;130329;1267;109083;-77
2022/07/18 08:51:59;;;;;;;3.80;1.60;;;;;;;20.80;53.62;101020.07;130249;1268;109468;-77
2022/07/18 08:55:07;;;;;;;2.60;1.70;;;;;;;20.76;53.23;101018.70;130350;1267;107260;-77
2022/07/18 08:58:14;;;;;;;2.20;1.50;;;;;;;20.74;53.71;101019.66;130386;1267;107052;-78
2022/07/18 09:01:20;;;;;;;3.60;2.00;;;;;;;20.87;54.55;101017.63;130247;1267;108785;-77
2022/07/18 09:04:36;;;;;;;5.60;1.60;;;;;;;20.99;53.57;101016.01;130306;1267;108745;-74
2022/07/18 09:07:41;;;;;;;3.60;1.40;;;;;;;21.12;54.40;101013.76;130349;1267;108660;-79
2022/07/18 09:10:55;;;;;;;2.10;1.40;;;;;;;21.30;54.32;101007.45;130022;1267;324875;-79
2022/07/18 09:14:01;;;;;;;3.30;1.50;;;;;;;21.46;53.19;101011.05;130384;1267;108781;-77
2022/07/18 09:17:10;;;;;;;2.60;1.60;;;;;;;21.56;53.02;101013.04;130313;1267;108720;-75
2022/07/18 09:20:16;;;;;;;2.90;1.50;;;;;;;21.63;52.31;101005.65;130327;1268;107134;-74
2022/07/18 09:23:22;;;;;;;2.10;1.50;;;;;;;21.62;52.10;101007.02;130339;1267;108858;-75
2022/07/18 09:26:43;;;;;;;3.70;1.50;;;;;;;21.67;52.25;101001.48;130283;1267;109025;-75
2022/07/18 09:29:48;;;;;;;2.70;1.60;;;;;;;21.70;52.50;101003.65;130303;1267;108835;-74
2022/07/18 09:32:57;;;;;;;2.40;1.80;;;;;;;21.85;53.49;100997.38;130233;1267;108756;-74
2022/07/18 09:36:02;;;;;;;4.00;1.60;;;;;;;22.02;52.52;100992.31;130162;1267;108831;-74
2022/07/18 09:39:21;;;;;;;5.00;3.30;;;;;;;22.04;51.82;100991.35;130380;1267;108888;-73
2022/07/18 09:42:26;;;;;;;4.00;2.00;;;;;;;22.06;51.12;100987.77;131265;1267;108673;-77
2022/07/18 09:45:35;;;;;;;3.20;1.60;;;;;;;22.03;50.74;100983.45;130270;1267;108929;-76
2022/07/18 09:48:40;;;;;;;3.60;1.80;;;;;;;22.05;50.61;100985.95;130213;1268;108884;-76
2022/07/18 09:52:04;;;;;;;3.60;1.70;;;;;;;22.03;50.68;100989.00;130171;1268;109292;-77
2022/07/18 09:55:10;;;;;;;2.80;1.40;;;;;;;22.12;50.15;100993.52;130279;1268;108598;-75
2022/07/18 09:58:18;;;;;;;2.20;1.60;;;;;;;22.15;50.65;100992.71;130187;1267;108866;-77
2022/07/18 10:01:24;;;;;;;2.30;1.40;;;;;;;22.34;51.17;100985.59;130257;1267;108922;-75
2022/07/18 10:04:30;;;;;;;2.40;1.50;;;;;;;22.52;49.07;100988.09;130163;1268;108765;-75
2022/07/18 10:07:35;;;;;;;1.80;1.40;;;;;;;22.49;48.20;100991.24;130170;1268;108930;-74
2022/07/18 10:10:43;;;;;;;2.20;1.60;;;;;;;22.61;50.28;100988.10;130223;1268;108870;-74
2022/07/18 10:13:50;;;;;;;2.70;1.60;;;;;;;22.87;50.12;100990.84;130173;1268;108476;-74
2022/07/18 10:16:55;;;;;;;2.20;1.60;;;;;;;23.02;49.42;100987.25;130148;1268;108763;-75
2022/07/18 10:20:07;;;;;;;2.10;1.40;;;;;;;23.10;48.48;100983.21;130185;1268;108768;-75
2022/07/18 10:23:17;;;;;;;3.40;2.50;;;;;;;23.27;47.27;100981.77;130290;1267;108952;-76
2022/07/18 10:26:28;;;;;;;2.00;1.60;;;;;;;23.51;48.02;100980.07;130253;1267;108645;-76
2022/07/18 10:29:33;;;;;;;2.40;1.40;;;;;;;23.96;49.23;100981.25;130251;1267;106803;-77
2022/07/18 10:32:39;;;;;;;2.80;1.60;;;;;;;24.29;46.84;100986.18;130250;1267;108748;-77
2022/07/18 10:36:06;;;;;;;1.90;1.40;;;;;;;24.20;46.51;100990.10;130238;1267;109717;-76
2022/07/18 10:39:17;;;;;;;1.80;1.20;;;;;;;24.25;47.59;101000.48;130137;1269;108808;-77
2022/07/18 10:42:24;;;;;;;2.40;1.50;;;;;;;24.27;47.12;101001.84;130343;1267;108875;-77
2022/07/18 10:45:45;;;;;;;1.60;1.30;;;;;;;24.33;48.16;101000.40;130268;1267;107704;-76
2022/07/18 10:48:56;;;;;;;2.60;1.50;;;;;;;24.48;47.53;100999.64;130325;1267;108750;-77
2022/07/18 10:52:01;;;;;;;2.30;1.50;;;;;;;24.46;47.00;101001.15;130353;1267;108648;-75
2022/07/18 10:55:32;;;;;;;2.60;1.60;;;;;;;24.49;46.44;100997.51;130519;1267;108774;-76
2022/07/18 10:58:40;;;;;;;2.40;1.80;;;;;;;24.43;47.32;100996.10;130435;1267;108856;-77
2022/07/18 11:01:53;;;;;;;2.40;1.50;;;;;;;24.46;47.17;100996.90;130551;1267;108790;-75
2022/07/18 11:04:59;;;;;;;3.40;1.50;;;;;;;24.35;47.14;101001.59;130397;1267;108749;-74
2022/07/18 11:08:20;;;;;;;3.50;1.30;;;;;;;24.16;46.94;100998.05;130261;1267;108790;-74
2022/07/18 11:11:25;;;;;;;2.50;1.50;;;;;;;23.88;47.11;100994.33;130415;1267;108731;-76
2022/07/18 11:15:01;;;;;;;2.40;1.50;;;;;;;23.59;46.48;100997.85;130283;1267;108883;-75
2022/07/18 11:18:07;;;;;;;2.60;1.60;;;;;;;23.25;47.22;100996.83;130451;1267;108336;-75
2022/07/18 11:21:19;;;;;;;3.60;1.50;;;;;;;23.09;47.19;100997.55;130393;1267;108846;-75
2022/07/18 11:24:25;;;;;;;1.80;1.40;;;;;;;23.12;46.53;100989.54;130689;1266;108738;-75
2022/07/18 11:27:31;;;;;;;4.10;2.20;;;;;;;23.20;45.92;100991.08;130538;1267;109199;-74
2022/07/18 11:30:37;;;;;;;3.50;1.80;;;;;;;23.12;43.34;100988.48;130395;1267;108843;-74
2022/07/18 11:33:45;;;;;;;2.50;1.70;;;;;;;23.04;43.74;100992.46;130325;1267;108761;-74
2022/07/18 11:36:51;;;;;;;2.70;1.50;;;;;;;23.06;44.84;100984.62;130393;1266;107458;-74
2022/07/18 11:40:07;;;;;;;2.80;1.70;;;;;;;23.18;44.20;100978.86;130343;1267;108649;-74
2022/07/18 11:43:12;;;;;;;3.20;1.70;;;;;;;23.24;42.86;100976.61;130323;1267;108706;-74
2022/07/18 11:46:22;;;;;;;3.00;1.80;;;;;;;23.28;43.67;100974.65;130435;1267;108888;-75
2022/07/18 11:49:27;;;;;;;2.70;1.70;;;;;;;23.30;42.92;100969.57;130347;1266;108886;-74
2022/07/18 11:52:33;;;;;;;2.10;1.70;;;;;;;23.35;43.64;100969.23;130228;1267;108868;-75
2022/07/18 11:55:39;;;;;;;2.90;1.40;;;;;;;23.41;44.03;100972.13;130369;1267;108826;-75
2022/07/18 11:58:48;;;;;;;2.30;1.80;;;;;;;23.38;43.37;100966.29;130293;1267;108685;-73
2022/07/18 12:01:53;;;;;;;2.10;1.50;;;;;;;23.36;43.33;100956.04;130343;1267;108737;-75
2022/07/18 12:04:59;;;;;;;2.30;1.40;;;;;;;23.28;43.64;100950.56;130926;1267;108722;-73
2022/07/18 12:08:28;;;;;;;2.30;1.50;;;;;;;23.31;43.85;100950.16;130318;1268;108799;-72
2022/07/18 12:11:36;;;;;;;4.90;1.50;;;;;;;23.29;43.60;100949.67;130338;1264;108771;-75
2022/07/18 12:14:41;;;;;;;2.50;1.60;;;;;;;23.32;44.38;100940.56;130334;1267;108633;-76
2022/07/18 12:17:50;;;;;;;2.30;1.60;;;;;;;23.45;44.46;100937.58;130267;1267;108697;-74
2022/07/18 12:21:09;;;;;;;2.90;1.40;;;;;;;23.43;43.00;100937.93;130255;1267;109147;-73
2022/07/18 12:24:26;;;;;;;3.70;1.50;;;;;;;23.35;42.55;100942.39;130273;1266;108540;-73
2022/07/18 12:27:38;;;;;;;2.50;1.30;;;;;;;23.33;43.36;100938.20;130326;1267;108116;-73
2022/07/18 12:30:45;;;;;;;2.30;1.40;;;;;;;23.36;43.71;100937.86;130272;1267;108679;-74
2022/07/18 12:34:10;;;;;;;2.30;1.50;;;;;;;23.41;43.94;100931.32;130305;1267;108616;-74
2022/07/18 12:37:25;;;;;;;2.20;1.30;;;;;;;23.45;43.64;100933.86;130357;1267;108852;-74
2022/07/18 12:40:45;;;;;;;3.80;1.50;;;;;;;23.43;43.44;100929.71;130369;1267;108914;-75
2022/07/18 12:43:51;;;;;;;2.60;1.40;;;;;;;23.40;42.82;100923.79;130318;1267;108899;-75
2022/07/18 12:46:57;;;;;;;1.80;1.40;;;;;;;23.36;42.91;100923.19;130460;1267;108744;-74
2022/07/18 12:50:02;;;;;;;2.50;1.50;;;;;;;23.36;43.59;100923.57;130288;1267;108679;-75
2022/07/18 12:53:08;;;;;;;2.90;1.40;;;;;;;23.37;42.79;100921.92;130279;1267;108903;-75
2022/07/18 12:56:14;;;;;;;3.20;1.50;;;;;;;23.39;42.59;100919.77;130248;1267;107287;-77
2022/07/18 12:59:19;;;;;;;1.90;1.30;;;;;;;23.46;43.39;100915.11;130285;1267;108833;-76
2022/07/18 13:02:24;;;;;;;2.00;1.60;;;;;;;23.56;43.40;100916.39;130243;1267;108905;-76
2022/07/18 13:05:31;;;;;;;3.30;1.60;;;;;;;23.64;43.27;100908.48;130264;1267;108738;-77
2022/07/18 13:08:36;;;;;;;1.90;1.40;;;;;;;23.72;42.45;100913.95;130371;1267;108776;-76
2022/07/18 13:11:46;;;;;;;2.70;1.50;;;;;;;23.74;42.86;100912.60;130282;1267;108547;-75
2022/07/18 13:14:51;;;;;;;2.90;1.50;;;;;;;23.85;43.34;100906.81;130318;1267;108645;-75
2022/07/18 13:17:57;;;;;;;2.90;1.40;;;;;;;24.00;43.42;100902.76;130362;1267;108988;-75
2022/07/18 13:21:03;;;;;;;2.40;1.50;;;;;;;24.01;42.50;100901.02;130404;1266;107390;-74
2022/07/18 13:24:09;;;;;;;3.50;1.50;;;;;;;24.00;42.81;100903.46;130239;1267;108751;-74
2022/07/18 13:27:15;;;;;;;3.60;1.40;;;;;;;24.04;42.56;100907.13;130215;1267;108983;-74
2022/07/18 13:30:20;;;;;;;2.10;1.40;;;;;;;24.07;42.32;100904.15;130172;1266;108984;-75
2022/07/18 13:33:25;;;;;;;3.70;1.60;;;;;;;24.08;42.37;100903.00;130230;1267;108213;-74
2022/07/18 13:36:32;;;;;;;2.50;1.40;;;;;;;24.03;42.78;100897.23;130249;1266;108879;-74
2022/07/18 13:39:37;;;;;;;2.20;1.50;;;;;;;24.04;43.01;100896.67;130220;1267;107213;-75
2022/07/18 13:42:43;;;;;;;2.80;1.50;;;;;;;24.11;41.93;100898.64;130236;1266;107907;-74
2022/07/18 13:45:48;;;;;;;2.30;1.50;;;;;;;24.13;42.05;100890.70;130229;1267;108884;-74
2022/07/18 13:48:54;;;;;;;3.10;1.50;;;;;;;24.17;41.61;100895.67;130312;1267;108907;-75
2022/07/18 13:51:59;;;;;;;3.90;1.40;;;;;;;24.23;42.63;100893.35;130317;1267;108779;-74
2022/07/18 13:55:05;;;;;;;2.50;1.40;;;;;;;24.32;42.09;100889.39;130320;1267;108884;-75
2022/07/18 13:58:11;;;;;;;3.80;1.30;;;;;;;24.40;42.10;100893.40;130300;1267;108650;-75
2022/07/18 14:01:16;;;;;;;3.60;1.50;;;;;;;24.50;41.96;100886.45;130380;1265;108792;-75
2022/07/18 14:04:22;;;;;;;1.80;1.50;;;;;;;24.65;42.12;100881.85;130358;1267;107115;-84
2022/07/18 14:07:27;;;;;;;1.50;1.30;;;;;;;24.71;40.99;100882.44;130418;1267;108651;-76
2022/07/18 14:10:33;;;;;;;2.50;1.40;;;;;;;24.66;41.30;100878.06;130279;1267;108870;-76
2022/07/18 14:13:38;;;;;;;3.40;1.50;;;;;;;24.71;41.04;100865.57;130282;1267;108827;-77